メインページ
METAR-TAF:

METAR-TAF

空港 :

ダカール, セネガル

レオポール・セダール・サンゴール国際空港

緯度: 14-44N, 経度: 017-30W, 海抜: 27m

現時点の気象観測

当レポートは19分前の23:00(UTC)に作成
気温 24°C
湿度 89%
気圧 1015 hPa
視程10km以上
高度800ftの千切れ雲あり

METAR: GOOY 272300Z /////KT 9999 BKN008 24/22 Q1015 NOSIG

時間: 23:19 (23:19 UTC)

予報

当レポートは5時間49分前の17:30(UTC)に作成
予報は27日の 18時(UTC)から 28日の 24時(UTC)まで有効
北/北西の風 10kt
視程10km以上
高度1000ftの雲は散在している
27日の 19時(UTC)から 28日の 01時(UTC)まで一時的に
高度800ftの千切れ雲あり

TAF: GOOY 271730Z 2718/2824 34010KT 9999 SCT010 TEMPO 2719/2801 BKN008

4,000以上の空港の気象観測と天気予報(METAR報とTAF報)

利用可能な観測所は地図上に黄色い丸と赤い丸で示す。

丸の上にカーソルを重ねると観測所名を参照できる。

次にクリックすると気象観測と天気予報を参照できる。

マップの切り替え:黒色「×」印の緑ボタンをクリックして拡大、「-」印の緑ボタンをクリックして縮小、緑色の三角印をクリックして隣りの地図に切り替え


METAR-TAF: